sensor_id;sensor_type;location;lat;lon;timestamp;temperature;humidity
35240;DHT22;21376;50.954;4.716;2023-10-08T00:02:11;16.10;99.90
35240;DHT22;21376;50.954;4.716;2023-10-08T00:04:44;16.20;99.90
35240;DHT22;21376;50.954;4.716;2023-10-08T00:07:13;16.20;99.90
35240;DHT22;21376;50.954;4.716;2023-10-08T00:09:42;16.10;99.90
35240;DHT22;21376;50.954;4.716;2023-10-08T00:12:28;16.10;99.90
35240;DHT22;21376;50.954;4.716;2023-10-08T00:14:55;16.30;99.90
35240;DHT22;21376;50.954;4.716;2023-10-08T00:17:27;16.20;99.90
35240;DHT22;21376;50.954;4.716;2023-10-08T00:19:54;16.10;99.90
35240;DHT22;21376;50.954;4.716;2023-10-08T00:22:32;16.20;99.90
35240;DHT22;21376;50.954;4.716;2023-10-08T00:25:04;16.00;99.90
35240;DHT22;21376;50.954;4.716;2023-10-08T00:27:40;15.80;99.90
35240;DHT22;21376;50.954;4.716;2023-10-08T00:30:09;15.80;99.90
35240;DHT22;21376;50.954;4.716;2023-10-08T00:32:44;15.80;99.90
35240;DHT22;21376;50.954;4.716;2023-10-08T00:35:10;15.80;99.90
35240;DHT22;21376;50.954;4.716;2023-10-08T00:37:54;15.60;99.90
35240;DHT22;21376;50.954;4.716;2023-10-08T00:40:38;15.60;99.90
35240;DHT22;21376;50.954;4.716;2023-10-08T00:43:05;15.40;99.90
35240;DHT22;21376;50.954;4.716;2023-10-08T00:45:42;15.50;99.90
35240;DHT22;21376;50.954;4.716;2023-10-08T00:48:18;15.20;99.90
35240;DHT22;21376;50.954;4.716;2023-10-08T00:50:50;15.20;99.90
35240;DHT22;21376;50.954;4.716;2023-10-08T00:53:19;15.20;99.90
35240;DHT22;21376;50.954;4.716;2023-10-08T00:55:50;15.20;99.90
35240;DHT22;21376;50.954;4.716;2023-10-08T00:58:22;15.30;99.90
35240;DHT22;21376;50.954;4.716;2023-10-08T01:00:54;15.30;99.90
35240;DHT22;21376;50.954;4.716;2023-10-08T01:03:47;15.30;99.90
35240;DHT22;21376;50.954;4.716;2023-10-08T01:06:20;15.30;99.90
35240;DHT22;21376;50.954;4.716;2023-10-08T01:08:49;15.30;99.90
35240;DHT22;21376;50.954;4.716;2023-10-08T01:22:58;15.20;99.90
35240;DHT22;21376;50.954;4.716;2023-10-08T01:25:32;15.20;99.90
35240;DHT22;21376;50.954;4.716;2023-10-08T01:28:02;15.10;99.90
35240;DHT22;21376;50.954;4.716;2023-10-08T01:30:35;15.00;99.90
35240;DHT22;21376;50.954;4.716;2023-10-08T01:33:10;15.00;99.90
35240;DHT22;21376;50.954;4.716;2023-10-08T01:35:43;14.90;99.90
35240;DHT22;21376;50.954;4.716;2023-10-08T01:38:31;14.70;99.90
35240;DHT22;21376;50.954;4.716;2023-10-08T01:41:25;15.00;99.90
35240;DHT22;21376;50.954;4.716;2023-10-08T01:44:21;14.80;99.90
35240;DHT22;21376;50.954;4.716;2023-10-08T01:46:50;14.40;99.90
35240;DHT22;21376;50.954;4.716;2023-10-08T01:49:46;14.50;99.90
35240;DHT22;21376;50.954;4.716;2023-10-08T01:52:17;14.60;99.90
35240;DHT22;21376;50.954;4.716;2023-10-08T01:54:48;14.70;99.90
35240;DHT22;21376;50.954;4.716;2023-10-08T01:57:21;14.70;99.90
35240;DHT22;21376;50.954;4.716;2023-10-08T01:59:48;14.70;99.90
35240;DHT22;21376;50.954;4.716;2023-10-08T02:02:17;14.50;99.90
35240;DHT22;21376;50.954;4.716;2023-10-08T02:04:46;14.60;99.90
35240;DHT22;21376;50.954;4.716;2023-10-08T02:07:15;14.70;99.90
35240;DHT22;21376;50.954;4.716;2023-10-08T02:10:01;14.60;99.90
35240;DHT22;21376;50.954;4.716;2023-10-08T02:12:27;14.70;99.90
35240;DHT22;21376;50.954;4.716;2023-10-08T02:14:55;14.80;99.90
35240;DHT22;21376;50.954;4.716;2023-10-08T02:20:36;14.90;99.90
35240;DHT22;21376;50.954;4.716;2023-10-08T02:23:38;14.80;99.90
35240;DHT22;21376;50.954;4.716;2023-10-08T02:26:10;14.70;99.90
35240;DHT22;21376;50.954;4.716;2023-10-08T02:31:58;14.50;99.90
35240;DHT22;21376;50.954;4.716;2023-10-08T02:34:30;14.30;99.90
35240;DHT22;21376;50.954;4.716;2023-10-08T02:36:59;14.30;99.90
35240;DHT22;21376;50.954;4.716;2023-10-08T02:39:28;14.50;99.90
35240;DHT22;21376;50.954;4.716;2023-10-08T02:41:59;14.50;99.90
35240;DHT22;21376;50.954;4.716;2023-10-08T02:44:26;14.60;99.90
35240;DHT22;21376;50.954;4.716;2023-10-08T02:46:54;14.60;99.90
35240;DHT22;21376;50.954;4.716;2023-10-08T02:52:31;14.30;99.90
35240;DHT22;21376;50.954;4.716;2023-10-08T02:55:07;14.30;99.90
35240;DHT22;21376;50.954;4.716;2023-10-08T02:57:47;14.40;99.90
35240;DHT22;21376;50.954;4.716;2023-10-08T03:00:29;14.40;99.90
35240;DHT22;21376;50.954;4.716;2023-10-08T03:03:18;14.30;99.90
35240;DHT22;21376;50.954;4.716;2023-10-08T03:05:52;14.40;99.90
35240;DHT22;21376;50.954;4.716;2023-10-08T03:08:21;14.50;99.90
35240;DHT22;21376;50.954;4.716;2023-10-08T03:10:54;14.40;99.90
35240;DHT22;21376;50.954;4.716;2023-10-08T03:13:31;14.40;99.90
35240;DHT22;21376;50.954;4.716;2023-10-08T03:15:57;14.50;99.90
35240;DHT22;21376;50.954;4.716;2023-10-08T03:18:34;14.30;99.90
35240;DHT22;21376;50.954;4.716;2023-10-08T03:21:19;14.50;99.90
35240;DHT22;21376;50.954;4.716;2023-10-08T03:23:47;14.40;99.90
35240;DHT22;21376;50.954;4.716;2023-10-08T03:29:34;14.60;99.90
35240;DHT22;21376;50.954;4.716;2023-10-08T03:32:12;14.60;99.90
35240;DHT22;21376;50.954;4.716;2023-10-08T03:34:59;14.60;99.90
35240;DHT22;21376;50.954;4.716;2023-10-08T03:37:26;14.40;99.90
35240;DHT22;21376;50.954;4.716;2023-10-08T03:39:58;14.50;99.90
35240;DHT22;21376;50.954;4.716;2023-10-08T03:45:46;14.50;99.90
35240;DHT22;21376;50.954;4.716;2023-10-08T03:48:27;14.50;99.90
35240;DHT22;21376;50.954;4.716;2023-10-08T03:51:05;14.60;99.90
35240;DHT22;21376;50.954;4.716;2023-10-08T03:53:40;14.70;99.90
35240;DHT22;21376;50.954;4.716;2023-10-08T03:56:26;14.50;99.90
35240;DHT22;21376;50.954;4.716;2023-10-08T03:58:58;14.50;99.90
35240;DHT22;21376;50.954;4.716;2023-10-08T04:01:42;14.50;99.90
35240;DHT22;21376;50.954;4.716;2023-10-08T04:04:43;14.50;99.90
35240;DHT22;21376;50.954;4.716;2023-10-08T04:07:41;14.50;99.90
35240;DHT22;21376;50.954;4.716;2023-10-08T04:10:35;14.30;99.90
35240;DHT22;21376;50.954;4.716;2023-10-08T04:13:22;14.30;99.90
35240;DHT22;21376;50.954;4.716;2023-10-08T04:15:52;14.20;99.90
35240;DHT22;21376;50.954;4.716;2023-10-08T04:18:22;14.20;99.90
35240;DHT22;21376;50.954;4.716;2023-10-08T04:20:55;14.20;99.90
35240;DHT22;21376;50.954;4.716;2023-10-08T04:23:40;14.30;99.90
35240;DHT22;21376;50.954;4.716;2023-10-08T04:29:58;14.30;99.90
35240;DHT22;21376;50.954;4.716;2023-10-08T04:35:48;13.80;99.90
35240;DHT22;21376;50.954;4.716;2023-10-08T04:38:24;14.00;99.90
35240;DHT22;21376;50.954;4.716;2023-10-08T04:40:53;14.00;99.90
35240;DHT22;21376;50.954;4.716;2023-10-08T04:43:23;13.90;99.90
35240;DHT22;21376;50.954;4.716;2023-10-08T04:45:54;14.20;99.90
35240;DHT22;21376;50.954;4.716;2023-10-08T04:48:25;14.10;99.90
35240;DHT22;21376;50.954;4.716;2023-10-08T04:50:55;13.90;99.90
35240;DHT22;21376;50.954;4.716;2023-10-08T04:53:32;13.90;99.90
35240;DHT22;21376;50.954;4.716;2023-10-08T04:56:04;13.90;99.90
35240;DHT22;21376;50.954;4.716;2023-10-08T04:58:46;13.90;99.90
35240;DHT22;21376;50.954;4.716;2023-10-08T05:01:20;13.80;99.90
35240;DHT22;21376;50.954;4.716;2023-10-08T05:03:54;13.60;99.90
35240;DHT22;21376;50.954;4.716;2023-10-08T05:06:33;13.50;99.90
35240;DHT22;21376;50.954;4.716;2023-10-08T05:09:28;13.60;99.90
35240;DHT22;21376;50.954;4.716;2023-10-08T05:12:35;13.60;99.90
35240;DHT22;21376;50.954;4.716;2023-10-08T05:15:11;13.50;99.90
35240;DHT22;21376;50.954;4.716;2023-10-08T05:17:52;13.50;99.90
35240;DHT22;21376;50.954;4.716;2023-10-08T05:23:45;13.40;99.90
35240;DHT22;21376;50.954;4.716;2023-10-08T05:26:38;13.40;99.90
35240;DHT22;21376;50.954;4.716;2023-10-08T05:29:19;13.40;99.90
35240;DHT22;21376;50.954;4.716;2023-10-08T05:32:10;13.50;99.90
35240;DHT22;21376;50.954;4.716;2023-10-08T05:35:06;13.40;99.90
35240;DHT22;21376;50.954;4.716;2023-10-08T05:38:18;13.60;99.90
35240;DHT22;21376;50.954;4.716;2023-10-08T05:41:16;13.50;99.90
35240;DHT22;21376;50.954;4.716;2023-10-08T05:43:56;13.20;99.90
35240;DHT22;21376;50.954;4.716;2023-10-08T05:46:42;13.10;99.90
35240;DHT22;21376;50.954;4.716;2023-10-08T05:49:28;13.20;99.90
35240;DHT22;21376;50.954;4.716;2023-10-08T05:52:07;13.20;99.90
35240;DHT22;21376;50.954;4.716;2023-10-08T05:54:36;13.10;99.90
35240;DHT22;21376;50.954;4.716;2023-10-08T05:57:13;13.10;99.90
35240;DHT22;21376;50.954;4.716;2023-10-08T06:00:04;13.20;99.90
35240;DHT22;21376;50.954;4.716;2023-10-08T06:02:32;13.30;99.90
35240;DHT22;21376;50.954;4.716;2023-10-08T06:05:01;13.40;99.90
35240;DHT22;21376;50.954;4.716;2023-10-08T06:07:50;13.40;99.90
35240;DHT22;21376;50.954;4.716;2023-10-08T06:10:30;13.30;99.90
35240;DHT22;21376;50.954;4.716;2023-10-08T06:15:50;13.40;99.90
35240;DHT22;21376;50.954;4.716;2023-10-08T06:18:29;13.60;99.90
35240;DHT22;21376;50.954;4.716;2023-10-08T06:21:06;13.50;99.90
35240;DHT22;21376;50.954;4.716;2023-10-08T06:23:44;13.60;99.90
35240;DHT22;21376;50.954;4.716;2023-10-08T06:26:17;13.60;99.90
35240;DHT22;21376;50.954;4.716;2023-10-08T06:28:52;13.70;99.90
35240;DHT22;21376;50.954;4.716;2023-10-08T06:31:24;13.90;99.90
35240;DHT22;21376;50.954;4.716;2023-10-08T06:34:00;14.10;99.90
35240;DHT22;21376;50.954;4.716;2023-10-08T06:36:31;14.20;99.90
35240;DHT22;21376;50.954;4.716;2023-10-08T06:38:58;14.30;99.90
35240;DHT22;21376;50.954;4.716;2023-10-08T06:41:29;14.50;99.90
35240;DHT22;21376;50.954;4.716;2023-10-08T06:44:02;14.80;99.90
35240;DHT22;21376;50.954;4.716;2023-10-08T06:46:30;14.80;99.90
35240;DHT22;21376;50.954;4.716;2023-10-08T06:49:03;15.00;99.90
35240;DHT22;21376;50.954;4.716;2023-10-08T06:51:31;15.40;99.90
35240;DHT22;21376;50.954;4.716;2023-10-08T06:53:59;15.40;99.90
35240;DHT22;21376;50.954;4.716;2023-10-08T06:56:30;15.60;99.90
35240;DHT22;21376;50.954;4.716;2023-10-08T06:59:09;15.70;99.90
35240;DHT22;21376;50.954;4.716;2023-10-08T07:01:42;16.10;99.90
35240;DHT22;21376;50.954;4.716;2023-10-08T07:04:18;16.30;99.90
35240;DHT22;21376;50.954;4.716;2023-10-08T07:07:01;17.10;99.90
35240;DHT22;21376;50.954;4.716;2023-10-08T07:09:33;17.60;99.90
35240;DHT22;21376;50.954;4.716;2023-10-08T07:12:02;18.20;99.90
35240;DHT22;21376;50.954;4.716;2023-10-08T07:14:43;18.50;99.90
35240;DHT22;21376;50.954;4.716;2023-10-08T07:17:28;18.60;99.90
35240;DHT22;21376;50.954;4.716;2023-10-08T07:20:11;18.80;99.90
35240;DHT22;21376;50.954;4.716;2023-10-08T07:22:40;19.30;99.90
35240;DHT22;21376;50.954;4.716;2023-10-08T07:25:18;19.90;99.90
35240;DHT22;21376;50.954;4.716;2023-10-08T07:27:47;20.00;99.90
35240;DHT22;21376;50.954;4.716;2023-10-08T07:30:14;20.60;99.90
35240;DHT22;21376;50.954;4.716;2023-10-08T07:36:50;20.80;99.90
35240;DHT22;21376;50.954;4.716;2023-10-08T07:39:40;22.00;99.90
35240;DHT22;21376;50.954;4.716;2023-10-08T07:42:31;23.00;99.90
35240;DHT22;21376;50.954;4.716;2023-10-08T07:45:13;23.10;99.90
35240;DHT22;21376;50.954;4.716;2023-10-08T07:47:48;23.80;99.90
35240;DHT22;21376;50.954;4.716;2023-10-08T07:50:19;22.30;99.90
35240;DHT22;21376;50.954;4.716;2023-10-08T07:52:48;22.90;99.90
35240;DHT22;21376;50.954;4.716;2023-10-08T07:55:17;23.60;99.90
35240;DHT22;21376;50.954;4.716;2023-10-08T07:57:46;23.50;99.90
35240;DHT22;21376;50.954;4.716;2023-10-08T08:00:23;24.50;99.90
35240;DHT22;21376;50.954;4.716;2023-10-08T08:02:53;25.00;99.90
35240;DHT22;21376;50.954;4.716;2023-10-08T08:05:23;26.20;99.90
35240;DHT22;21376;50.954;4.716;2023-10-08T08:07:58;26.20;99.90
35240;DHT22;21376;50.954;4.716;2023-10-08T08:10:32;26.10;99.90
35240;DHT22;21376;50.954;4.716;2023-10-08T08:13:09;26.50;99.90
35240;DHT22;21376;50.954;4.716;2023-10-08T08:15:37;26.80;99.90
35240;DHT22;21376;50.954;4.716;2023-10-08T08:18:08;27.00;99.90
35240;DHT22;21376;50.954;4.716;2023-10-08T08:20:50;27.10;99.90
35240;DHT22;21376;50.954;4.716;2023-10-08T08:23:16;26.70;99.90
35240;DHT22;21376;50.954;4.716;2023-10-08T08:25:52;27.00;99.90
35240;DHT22;21376;50.954;4.716;2023-10-08T08:28:43;26.60;99.90
35240;DHT22;21376;50.954;4.716;2023-10-08T08:31:21;27.10;99.90
35240;DHT22;21376;50.954;4.716;2023-10-08T08:37:05;26.70;99.90
35240;DHT22;21376;50.954;4.716;2023-10-08T08:39:35;26.40;99.90
35240;DHT22;21376;50.954;4.716;2023-10-08T08:42:03;26.30;99.90
35240;DHT22;21376;50.954;4.716;2023-10-08T08:47:07;26.30;99.90
35240;DHT22;21376;50.954;4.716;2023-10-08T08:49:41;26.70;99.90
35240;DHT22;21376;50.954;4.716;2023-10-08T08:52:08;27.80;99.90
35240;DHT22;21376;50.954;4.716;2023-10-08T08:54:34;27.90;99.90
35240;DHT22;21376;50.954;4.716;2023-10-08T08:57:04;28.20;99.90
35240;DHT22;21376;50.954;4.716;2023-10-08T08:59:36;28.60;99.90
35240;DHT22;21376;50.954;4.716;2023-10-08T09:02:08;29.90;99.90
35240;DHT22;21376;50.954;4.716;2023-10-08T09:04:39;30.90;99.90
35240;DHT22;21376;50.954;4.716;2023-10-08T09:07:08;31.40;99.90
35240;DHT22;21376;50.954;4.716;2023-10-08T09:09:35;30.80;99.90
35240;DHT22;21376;50.954;4.716;2023-10-08T09:12:11;29.70;99.90
35240;DHT22;21376;50.954;4.716;2023-10-08T09:14:49;28.50;99.90
35240;DHT22;21376;50.954;4.716;2023-10-08T09:17:18;29.40;99.90
35240;DHT22;21376;50.954;4.716;2023-10-08T09:19:43;29.90;99.90
35240;DHT22;21376;50.954;4.716;2023-10-08T09:22:14;30.70;99.90
35240;DHT22;21376;50.954;4.716;2023-10-08T09:24:41;30.40;99.90
35240;DHT22;21376;50.954;4.716;2023-10-08T09:27:11;29.10;99.90
35240;DHT22;21376;50.954;4.716;2023-10-08T09:29:43;29.30;99.90
35240;DHT22;21376;50.954;4.716;2023-10-08T09:32:16;29.20;99.90
35240;DHT22;21376;50.954;4.716;2023-10-08T09:34:55;29.70;99.90
35240;DHT22;21376;50.954;4.716;2023-10-08T09:37:25;30.20;99.90
35240;DHT22;21376;50.954;4.716;2023-10-08T09:39:54;30.00;99.90
35240;DHT22;21376;50.954;4.716;2023-10-08T09:42:26;29.40;99.90
35240;DHT22;21376;50.954;4.716;2023-10-08T09:44:55;30.00;99.90
35240;DHT22;21376;50.954;4.716;2023-10-08T09:50:22;29.40;99.90
35240;DHT22;21376;50.954;4.716;2023-10-08T09:53:12;29.40;99.90
35240;DHT22;21376;50.954;4.716;2023-10-08T09:55:55;29.30;99.90
35240;DHT22;21376;50.954;4.716;2023-10-08T09:58:26;29.90;99.90
35240;DHT22;21376;50.954;4.716;2023-10-08T10:00:56;30.10;99.90
35240;DHT22;21376;50.954;4.716;2023-10-08T10:03:31;30.80;99.90
35240;DHT22;21376;50.954;4.716;2023-10-08T10:12:48;33.60;99.90
35240;DHT22;21376;50.954;4.716;2023-10-08T10:15:20;32.50;99.90
35240;DHT22;21376;50.954;4.716;2023-10-08T10:17:53;32.60;99.90
35240;DHT22;21376;50.954;4.716;2023-10-08T10:20:23;33.10;99.90
35240;DHT22;21376;50.954;4.716;2023-10-08T10:22:53;33.30;99.90
35240;DHT22;21376;50.954;4.716;2023-10-08T10:25:41;33.90;99.90
35240;DHT22;21376;50.954;4.716;2023-10-08T10:28:22;34.70;99.90
35240;DHT22;21376;50.954;4.716;2023-10-08T10:30:52;34.20;99.90
35240;DHT22;21376;50.954;4.716;2023-10-08T10:33:22;34.40;99.90
35240;DHT22;21376;50.954;4.716;2023-10-08T10:35:57;34.70;99.90
35240;DHT22;21376;50.954;4.716;2023-10-08T10:38:26;34.30;99.90
35240;DHT22;21376;50.954;4.716;2023-10-08T10:40:55;34.10;99.90
35240;DHT22;21376;50.954;4.716;2023-10-08T10:43:27;34.20;99.90
35240;DHT22;21376;50.954;4.716;2023-10-08T10:46:01;34.20;99.90
35240;DHT22;21376;50.954;4.716;2023-10-08T10:52:02;34.20;99.90
35240;DHT22;21376;50.954;4.716;2023-10-08T10:54:31;34.70;99.90
35240;DHT22;21376;50.954;4.716;2023-10-08T10:57:02;35.20;99.90
35240;DHT22;21376;50.954;4.716;2023-10-08T10:59:35;35.50;99.90
35240;DHT22;21376;50.954;4.716;2023-10-08T11:02:05;33.80;99.90
35240;DHT22;21376;50.954;4.716;2023-10-08T11:04:35;33.90;99.90
35240;DHT22;21376;50.954;4.716;2023-10-08T11:07:20;33.80;99.90
35240;DHT22;21376;50.954;4.716;2023-10-08T11:10:13;33.50;99.90
35240;DHT22;21376;50.954;4.716;2023-10-08T11:12:45;33.70;99.90
35240;DHT22;21376;50.954;4.716;2023-10-08T11:15:14;34.40;99.90
35240;DHT22;21376;50.954;4.716;2023-10-08T11:17:45;32.50;99.90
35240;DHT22;21376;50.954;4.716;2023-10-08T11:20:29;31.50;99.90
35240;DHT22;21376;50.954;4.716;2023-10-08T11:22:57;31.90;99.90
35240;DHT22;21376;50.954;4.716;2023-10-08T11:25:57;33.00;99.90
35240;DHT22;21376;50.954;4.716;2023-10-08T11:34:17;32.90;99.90
35240;DHT22;21376;50.954;4.716;2023-10-08T11:36:52;33.60;99.90
35240;DHT22;21376;50.954;4.716;2023-10-08T11:39:21;32.80;99.90
35240;DHT22;21376;50.954;4.716;2023-10-08T11:42:06;32.40;99.90
35240;DHT22;21376;50.954;4.716;2023-10-08T11:44:55;31.50;99.90
35240;DHT22;21376;50.954;4.716;2023-10-08T11:47:27;32.10;99.90
35240;DHT22;21376;50.954;4.716;2023-10-08T11:50:06;32.80;99.90
35240;DHT22;21376;50.954;4.716;2023-10-08T11:52:37;33.50;99.90
35240;DHT22;21376;50.954;4.716;2023-10-08T11:55:10;34.00;99.90
35240;DHT22;21376;50.954;4.716;2023-10-08T11:57:49;33.50;99.90
35240;DHT22;21376;50.954;4.716;2023-10-08T12:00:30;33.00;99.90
35240;DHT22;21376;50.954;4.716;2023-10-08T12:02:59;32.80;99.90
35240;DHT22;21376;50.954;4.716;2023-10-08T12:05:30;32.90;99.90
35240;DHT22;21376;50.954;4.716;2023-10-08T12:08:00;33.10;99.90
35240;DHT22;21376;50.954;4.716;2023-10-08T12:10:29;33.50;99.90
35240;DHT22;21376;50.954;4.716;2023-10-08T12:13:03;31.90;99.90
35240;DHT22;21376;50.954;4.716;2023-10-08T12:15:34;32.40;99.90
35240;DHT22;21376;50.954;4.716;2023-10-08T12:18:08;32.50;99.90
35240;DHT22;21376;50.954;4.716;2023-10-08T12:20:43;32.30;99.90
35240;DHT22;21376;50.954;4.716;2023-10-08T12:23:21;32.60;99.90
35240;DHT22;21376;50.954;4.716;2023-10-08T12:57:17;30.10;99.90
35240;DHT22;21376;50.954;4.716;2023-10-08T12:59:47;30.90;99.90
35240;DHT22;21376;50.954;4.716;2023-10-08T13:02:20;30.80;99.90
35240;DHT22;21376;50.954;4.716;2023-10-08T13:04:49;30.80;99.90
35240;DHT22;21376;50.954;4.716;2023-10-08T13:07:32;31.40;99.90
35240;DHT22;21376;50.954;4.716;2023-10-08T13:10:07;31.10;99.90
35240;DHT22;21376;50.954;4.716;2023-10-08T13:12:36;30.50;99.90
35240;DHT22;21376;50.954;4.716;2023-10-08T13:15:04;30.00;99.90
35240;DHT22;21376;50.954;4.716;2023-10-08T13:17:32;29.20;99.90
35240;DHT22;21376;50.954;4.716;2023-10-08T13:19:59;28.90;99.90
35240;DHT22;21376;50.954;4.716;2023-10-08T13:22:25;28.60;99.90
35240;DHT22;21376;50.954;4.716;2023-10-08T13:24:53;28.40;99.90
35240;DHT22;21376;50.954;4.716;2023-10-08T13:27:21;28.40;99.90
35240;DHT22;21376;50.954;4.716;2023-10-08T13:29:52;27.70;99.90
35240;DHT22;21376;50.954;4.716;2023-10-08T13:32:42;27.90;99.90
35240;DHT22;21376;50.954;4.716;2023-10-08T13:35:14;27.90;99.90
35240;DHT22;21376;50.954;4.716;2023-10-08T13:37:43;27.30;99.90
35240;DHT22;21376;50.954;4.716;2023-10-08T13:40:15;27.20;99.90
35240;DHT22;21376;50.954;4.716;2023-10-08T13:42:47;26.90;99.90
35240;DHT22;21376;50.954;4.716;2023-10-08T13:45:15;27.10;99.90
35240;DHT22;21376;50.954;4.716;2023-10-08T13:47:55;27.20;99.90
35240;DHT22;21376;50.954;4.716;2023-10-08T13:50:50;27.20;99.90
35240;DHT22;21376;50.954;4.716;2023-10-08T13:53:17;27.40;99.90
35240;DHT22;21376;50.954;4.716;2023-10-08T13:55:54;27.40;99.90
35240;DHT22;21376;50.954;4.716;2023-10-08T13:58:23;27.40;99.90
35240;DHT22;21376;50.954;4.716;2023-10-08T14:00:52;27.40;99.90
35240;DHT22;21376;50.954;4.716;2023-10-08T14:03:21;27.40;99.90
35240;DHT22;21376;50.954;4.716;2023-10-08T14:05:51;27.40;99.90
35240;DHT22;21376;50.954;4.716;2023-10-08T14:08:22;27.00;99.90
35240;DHT22;21376;50.954;4.716;2023-10-08T14:10:49;27.00;99.90
35240;DHT22;21376;50.954;4.716;2023-10-08T14:13:34;27.20;99.90
35240;DHT22;21376;50.954;4.716;2023-10-08T14:16:11;27.30;99.90
35240;DHT22;21376;50.954;4.716;2023-10-08T14:18:42;27.00;99.90
35240;DHT22;21376;50.954;4.716;2023-10-08T14:21:11;26.90;99.90
35240;DHT22;21376;50.954;4.716;2023-10-08T14:23:38;26.70;99.90
35240;DHT22;21376;50.954;4.716;2023-10-08T14:26:11;26.70;99.90
35240;DHT22;21376;50.954;4.716;2023-10-08T14:28:39;26.50;99.90
35240;DHT22;21376;50.954;4.716;2023-10-08T14:31:17;26.60;99.90
35240;DHT22;21376;50.954;4.716;2023-10-08T14:33:47;26.50;99.90
35240;DHT22;21376;50.954;4.716;2023-10-08T14:36:34;26.50;99.90
35240;DHT22;21376;50.954;4.716;2023-10-08T14:39:40;26.50;99.90
35240;DHT22;21376;50.954;4.716;2023-10-08T14:42:27;26.80;99.90
35240;DHT22;21376;50.954;4.716;2023-10-08T14:45:14;26.70;99.90
35240;DHT22;21376;50.954;4.716;2023-10-08T14:48:13;26.50;99.90
35240;DHT22;21376;50.954;4.716;2023-10-08T14:50:42;26.50;99.90
35240;DHT22;21376;50.954;4.716;2023-10-08T14:53:11;26.40;99.90
35240;DHT22;21376;50.954;4.716;2023-10-08T14:55:37;26.30;99.90
35240;DHT22;21376;50.954;4.716;2023-10-08T14:58:29;26.30;99.90
35240;DHT22;21376;50.954;4.716;2023-10-08T15:00:55;26.30;99.90
35240;DHT22;21376;50.954;4.716;2023-10-08T15:03:23;26.40;99.90
35240;DHT22;21376;50.954;4.716;2023-10-08T15:05:50;26.40;99.90
35240;DHT22;21376;50.954;4.716;2023-10-08T15:08:19;26.30;99.90
35240;DHT22;21376;50.954;4.716;2023-10-08T15:11:08;26.30;99.90
35240;DHT22;21376;50.954;4.716;2023-10-08T15:13:39;26.20;99.90
35240;DHT22;21376;50.954;4.716;2023-10-08T15:16:08;26.20;99.90
35240;DHT22;21376;50.954;4.716;2023-10-08T15:18:39;26.00;99.90
35240;DHT22;21376;50.954;4.716;2023-10-08T15:21:10;25.90;99.90
35240;DHT22;21376;50.954;4.716;2023-10-08T15:23:40;25.70;99.90
35240;DHT22;21376;50.954;4.716;2023-10-08T15:26:09;25.60;99.90
35240;DHT22;21376;50.954;4.716;2023-10-08T15:29:14;25.40;99.90
35240;DHT22;21376;50.954;4.716;2023-10-08T15:31:42;25.50;99.90
35240;DHT22;21376;50.954;4.716;2023-10-08T15:34:09;25.40;99.90
35240;DHT22;21376;50.954;4.716;2023-10-08T15:36:39;25.50;99.90
35240;DHT22;21376;50.954;4.716;2023-10-08T15:39:12;25.40;99.90
35240;DHT22;21376;50.954;4.716;2023-10-08T15:41:44;25.30;99.90
35240;DHT22;21376;50.954;4.716;2023-10-08T15:44:10;25.40;99.90
35240;DHT22;21376;50.954;4.716;2023-10-08T15:46:37;25.20;99.90
35240;DHT22;21376;50.954;4.716;2023-10-08T15:49:03;25.20;99.90
35240;DHT22;21376;50.954;4.716;2023-10-08T15:51:32;25.20;99.90
35240;DHT22;21376;50.954;4.716;2023-10-08T15:54:00;25.20;99.90
35240;DHT22;21376;50.954;4.716;2023-10-08T15:56:27;25.00;99.90
35240;DHT22;21376;50.954;4.716;2023-10-08T15:58:57;24.90;99.90
35240;DHT22;21376;50.954;4.716;2023-10-08T16:01:24;24.90;99.90
35240;DHT22;21376;50.954;4.716;2023-10-08T16:04:17;24.90;99.90
35240;DHT22;21376;50.954;4.716;2023-10-08T16:06:43;24.80;99.90
35240;DHT22;21376;50.954;4.716;2023-10-08T16:09:11;24.90;99.90
35240;DHT22;21376;50.954;4.716;2023-10-08T16:11:37;24.80;99.90
35240;DHT22;21376;50.954;4.716;2023-10-08T16:14:06;24.80;99.90
35240;DHT22;21376;50.954;4.716;2023-10-08T16:16:33;24.80;99.90
35240;DHT22;21376;50.954;4.716;2023-10-08T16:19:01;24.70;99.90
35240;DHT22;21376;50.954;4.716;2023-10-08T16:21:30;24.50;99.90
35240;DHT22;21376;50.954;4.716;2023-10-08T16:24:01;24.40;99.90
35240;DHT22;21376;50.954;4.716;2023-10-08T16:26:29;24.10;99.90
35240;DHT22;21376;50.954;4.716;2023-10-08T16:28:56;24.00;99.90
35240;DHT22;21376;50.954;4.716;2023-10-08T16:31:31;23.80;99.90
35240;DHT22;21376;50.954;4.716;2023-10-08T16:34:00;23.70;99.90
35240;DHT22;21376;50.954;4.716;2023-10-08T16:36:28;23.60;99.90
35240;DHT22;21376;50.954;4.716;2023-10-08T16:39:02;23.50;99.90
35240;DHT22;21376;50.954;4.716;2023-10-08T16:41:30;23.30;99.90
35240;DHT22;21376;50.954;4.716;2023-10-08T16:44:02;23.20;99.90
35240;DHT22;21376;50.954;4.716;2023-10-08T16:46:36;23.00;99.90
35240;DHT22;21376;50.954;4.716;2023-10-08T16:49:03;22.90;99.90
35240;DHT22;21376;50.954;4.716;2023-10-08T16:51:53;22.70;99.90
35240;DHT22;21376;50.954;4.716;2023-10-08T16:54:31;22.60;99.90
35240;DHT22;21376;50.954;4.716;2023-10-08T16:57:00;22.50;99.90
35240;DHT22;21376;50.954;4.716;2023-10-08T16:59:29;22.30;99.90
35240;DHT22;21376;50.954;4.716;2023-10-08T17:01:58;22.10;99.90
35240;DHT22;21376;50.954;4.716;2023-10-08T17:04:26;21.90;99.90
35240;DHT22;21376;50.954;4.716;2023-10-08T17:06:52;21.70;99.90
35240;DHT22;21376;50.954;4.716;2023-10-08T17:09:20;21.70;99.90
35240;DHT22;21376;50.954;4.716;2023-10-08T17:11:50;21.50;99.90
35240;DHT22;21376;50.954;4.716;2023-10-08T17:14:20;21.40;99.90
35240;DHT22;21376;50.954;4.716;2023-10-08T17:16:51;21.20;99.90
35240;DHT22;21376;50.954;4.716;2023-10-08T17:19:19;21.10;99.90
35240;DHT22;21376;50.954;4.716;2023-10-08T17:21:47;21.00;99.90
35240;DHT22;21376;50.954;4.716;2023-10-08T17:24:15;20.90;99.90
35240;DHT22;21376;50.954;4.716;2023-10-08T17:26:44;20.80;99.90
35240;DHT22;21376;50.954;4.716;2023-10-08T17:31:36;20.70;99.90
35240;DHT22;21376;50.954;4.716;2023-10-08T17:34:03;20.60;99.90
35240;DHT22;21376;50.954;4.716;2023-10-08T17:36:34;20.50;99.90
35240;DHT22;21376;50.954;4.716;2023-10-08T17:39:04;20.30;99.90
35240;DHT22;21376;50.954;4.716;2023-10-08T17:45:05;20.30;99.90
35240;DHT22;21376;50.954;4.716;2023-10-08T17:47:35;20.10;99.90
35240;DHT22;21376;50.954;4.716;2023-10-08T17:50:04;20.00;99.90
35240;DHT22;21376;50.954;4.716;2023-10-08T17:56:05;19.90;99.90
35240;DHT22;21376;50.954;4.716;2023-10-08T17:58:35;19.80;99.90
35240;DHT22;21376;50.954;4.716;2023-10-08T18:01:12;19.70;99.90
35240;DHT22;21376;50.954;4.716;2023-10-08T18:03:43;19.40;99.90
35240;DHT22;21376;50.954;4.716;2023-10-08T18:06:17;19.40;99.90